Time;durP1;ratioP1;P1;durP2;ratioP2;P2;SDS_P1;SDS_P2;PMS_P1;PMS_P2;Temp;Humidity;BMP_temperature;BMP_pressure;BME280_temperature;BME280_humidity;BME280_pressure;Samples;Min_cycle;Max_cycle;Signal;HPM_P1;HPM_P2
2023/09/02 00:01:14;;;;;;;3.72;1.60;;;14.90;99.90;;;;;;5114586;28;20028;-72
2023/09/02 00:03:40;;;;;;;2.58;1.13;;;14.90;99.90;;;;;;5114407;28;20028;-72
2023/09/02 00:06:06;;;;;;;3.00;1.33;;;14.90;99.90;;;;;;5114395;28;20074;-72
2023/09/02 00:08:31;;;;;;;2.83;1.40;;;14.90;99.90;;;;;;5079530;28;20019;-72
2023/09/02 00:10:57;;;;;;;2.22;1.35;;;14.90;99.90;;;;;;5113894;28;20499;-72
2023/09/02 00:13:23;;;;;;;3.40;1.30;;;14.90;99.90;;;;;;5114402;28;20484;-72
2023/09/02 00:15:48;;;;;;;3.17;1.33;;;14.80;99.90;;;;;;5079333;28;20160;-72
2023/09/02 00:18:14;;;;;;;3.13;1.58;;;14.80;99.90;;;;;;5114340;28;20036;-72
2023/09/02 00:20:40;;;;;;;2.22;1.40;;;14.60;99.90;;;;;;5096164;28;20077;-72
2023/09/02 00:23:05;;;;;;;3.20;1.52;;;14.50;99.90;;;;;;5096249;28;20042;-73
2023/09/02 00:25:31;;;;;;;2.47;1.63;;;14.40;99.90;;;;;;5114979;28;20023;-72
2023/09/02 00:27:57;;;;;;;3.15;1.42;;;14.40;99.90;;;;;;5114597;28;20032;-72
2023/09/02 00:30:22;;;;;;;2.40;1.38;;;14.30;99.90;;;;;;5114039;28;20031;-73
2023/09/02 00:32:48;;;;;;;3.85;1.58;;;14.40;99.90;;;;;;5096082;28;20035;-72
2023/09/02 00:35:14;;;;;;;2.28;1.40;;;14.40;99.90;;;;;;5114166;28;20027;-72
2023/09/02 00:37:39;;;;;;;2.17;1.30;;;14.40;99.90;;;;;;5079286;28;20031;-74
2023/09/02 00:40:09;;;;;;;3.55;1.52;;;14.40;99.90;;;;;;5095953;28;20081;-75
2023/09/02 00:42:36;;;;;;;5.88;1.58;;;14.30;99.90;;;;;;5114190;28;20102;-75
2023/09/02 00:45:02;;;;;;;2.67;1.38;;;14.30;99.90;;;;;;5113868;28;20031;-75
2023/09/02 00:47:28;;;;;;;2.97;1.42;;;14.30;99.90;;;;;;5095639;28;20039;-75
2023/09/02 00:49:54;;;;;;;2.50;1.63;;;14.30;99.90;;;;;;5113806;28;20384;-74
2023/09/02 00:52:20;;;;;;;2.42;1.40;;;14.20;99.90;;;;;;5113878;28;20421;-75
2023/09/02 00:54:46;;;;;;;2.90;1.52;;;14.20;99.90;;;;;;5113737;28;20066;-75
2023/09/02 00:57:11;;;;;;;2.28;1.48;;;14.20;99.90;;;;;;5113811;28;20480;-75
2023/09/02 00:59:38;;;;;;;3.25;1.50;;;14.20;99.90;;;;;;5113757;28;20118;-74
2023/09/02 01:02:04;;;;;;;3.63;1.48;;;14.20;99.90;;;;;;5095322;28;20063;-74
2023/09/02 01:04:32;;;;;;;2.47;1.50;;;14.20;99.90;;;;;;5100522;28;20031;-74
2023/09/02 01:07:00;;;;;;;3.50;1.60;;;14.20;99.90;;;;;;5093663;28;20533;-75
2023/09/02 01:09:26;;;;;;;2.90;1.50;;;14.20;99.90;;;;;;5093497;28;20024;-74
2023/09/02 01:11:51;;;;;;;3.38;1.63;;;14.10;99.90;;;;;;5075177;28;20035;-74
2023/09/02 01:14:17;;;;;;;4.60;1.50;;;14.10;99.90;;;;;;5112772;28;20028;-74
2023/09/02 01:16:43;;;;;;;3.05;1.60;;;14.10;99.90;;;;;;5110414;28;20031;-74
2023/09/02 01:19:15;;;;;;;3.15;1.60;;;14.10;99.90;;;;;;5113053;28;20038;-74
2023/09/02 01:21:55;;;;;;;2.58;1.40;;;14.10;99.90;;;;;;5106639;28;20051;-74
2023/09/02 01:24:55;;;;;;;2.37;1.20;;;14.00;99.90;;;;;;5116960;28;20514;-74
2023/09/02 01:27:35;;;;;;;3.10;1.70;;;14.00;99.90;;;;;;5111958;28;20502;-74
2023/09/02 01:30:23;;;;;;;3.42;1.30;;;14.00;99.90;;;;;;5098625;28;20019;-74
2023/09/02 01:32:52;;;;;;;4.63;1.58;;;13.90;99.90;;;;;;5096931;28;20078;-74
2023/09/02 01:35:23;;;;;;;1.95;1.25;;;13.90;99.90;;;;;;5110359;28;20114;-74
2023/09/02 01:37:55;;;;;;;2.65;1.50;;;13.90;99.90;;;;;;5116783;28;20024;-74
2023/09/02 01:40:25;;;;;;;2.88;1.20;;;13.90;99.90;;;;;;5117375;28;20024;-74
2023/09/02 01:42:51;;;;;;;3.40;1.73;;;13.90;99.90;;;;;;5099049;28;20027;-75
2023/09/02 01:45:22;;;;;;;3.90;1.55;;;13.90;99.90;;;;;;5117125;28;20027;-74
2023/09/02 01:47:49;;;;;;;2.45;1.45;;;13.80;99.90;;;;;;5117588;28;20380;-75
2023/09/02 01:50:18;;;;;;;2.85;1.50;;;13.80;99.90;;;;;;5117172;28;20024;-74
2023/09/02 01:52:44;;;;;;;3.95;1.65;;;13.80;99.90;;;;;;5098893;28;20020;-75
2023/09/02 01:55:10;;;;;;;2.10;1.25;;;13.70;99.90;;;;;;5098830;28;20039;-75
2023/09/02 01:57:36;;;;;;;3.97;1.55;;;13.70;99.90;;;;;;5098769;28;20059;-75
2023/09/02 02:00:04;;;;;;;2.83;1.40;;;13.70;99.90;;;;;;5098770;28;20080;-74
2023/09/02 02:02:30;;;;;;;3.40;1.55;;;13.70;99.90;;;;;;5116912;28;20384;-74
2023/09/02 02:05:02;;;;;;;2.70;1.40;;;13.60;99.90;;;;;;5116828;28;20034;-75
2023/09/02 02:07:33;;;;;;;2.58;1.40;;;13.60;99.90;;;;;;5117244;28;20016;-74
2023/09/02 02:10:03;;;;;;;4.05;1.80;;;13.50;99.90;;;;;;5098474;28;20212;-74
2023/09/02 02:12:30;;;;;;;3.63;1.67;;;13.50;99.90;;;;;;5116733;28;20431;-75
2023/09/02 02:14:55;;;;;;;2.47;1.73;;;13.40;99.90;;;;;;5098343;28;20059;-74
2023/09/02 02:17:21;;;;;;;3.70;1.38;;;13.40;99.90;;;;;;5116596;28;20088;-75
2023/09/02 02:19:47;;;;;;;3.00;1.63;;;13.40;99.90;;;;;;5116598;28;20499;-74
2023/09/02 02:22:13;;;;;;;2.55;1.52;;;13.40;99.90;;;;;;5116578;28;20031;-75
2023/09/02 02:24:39;;;;;;;3.30;1.30;;;13.30;99.90;;;;;;5116370;28;20080;-74
2023/09/02 02:27:05;;;;;;;6.38;1.58;;;13.30;99.90;;;;;;5116692;28;20024;-75
2023/09/02 02:29:30;;;;;;;3.35;1.75;;;13.30;99.90;;;;;;5116408;28;20043;-74
2023/09/02 02:31:56;;;;;;;3.97;1.60;;;13.30;99.90;;;;;;5116304;28;20023;-74
2023/09/02 02:34:25;;;;;;;3.15;1.70;;;13.20;99.90;;;;;;5116252;28;20023;-75
2023/09/02 02:36:51;;;;;;;4.07;1.50;;;13.20;99.90;;;;;;5116404;28;20027;-74
2023/09/02 02:39:17;;;;;;;3.45;1.65;;;13.20;99.90;;;;;;5116273;28;20056;-75
2023/09/02 02:41:43;;;;;;;4.32;1.65;;;13.20;99.90;;;;;;5116154;28;20024;-74
2023/09/02 02:44:08;;;;;;;3.65;1.48;;;13.10;99.90;;;;;;5116098;28;20506;-74
2023/09/02 02:46:34;;;;;;;2.80;1.48;;;13.10;99.90;;;;;;5115857;28;20027;-74
2023/09/02 02:48:59;;;;;;;5.82;1.60;;;13.10;99.90;;;;;;5096267;28;20027;-74
2023/09/02 02:51:25;;;;;;;3.17;1.65;;;13.10;99.90;;;;;;5115134;28;20142;-74
2023/09/02 02:53:51;;;;;;;3.33;1.67;;;13.00;99.90;;;;;;5115730;28;20081;-75
2023/09/02 02:56:16;;;;;;;3.08;2.10;;;13.00;99.90;;;;;;5115942;28;20391;-74
2023/09/02 02:58:42;;;;;;;3.30;2.33;;;13.00;99.90;;;;;;5097704;28;20028;-74
2023/09/02 03:01:09;;;;;;;4.80;2.30;;;13.00;99.90;;;;;;5115763;28;20476;-74
2023/09/02 03:03:35;;;;;;;3.13;1.90;;;13.00;99.90;;;;;;5115700;28;20047;-74
2023/09/02 03:06:03;;;;;;;3.13;1.67;;;13.00;99.90;;;;;;5115970;28;20027;-75
2023/09/02 03:08:29;;;;;;;4.55;1.90;;;13.00;99.90;;;;;;5115749;28;20027;-74
2023/09/02 03:11:02;;;;;;;2.65;1.85;;;12.90;99.90;;;;;;5115843;28;20383;-75
2023/09/02 03:13:30;;;;;;;3.78;1.95;;;12.90;99.90;;;;;;5115676;28;20020;-74
2023/09/02 03:15:56;;;;;;;3.40;1.50;;;12.90;99.90;;;;;;5115530;28;20571;-75
2023/09/02 03:18:23;;;;;;;3.30;1.55;;;12.80;99.90;;;;;;5097452;28;20036;-74
2023/09/02 03:20:49;;;;;;;2.88;1.70;;;12.80;99.90;;;;;;5115427;28;20027;-74
2023/09/02 03:23:15;;;;;;;3.38;2.10;;;12.80;99.90;;;;;;5115489;28;20494;-74
2023/09/02 03:25:41;;;;;;;3.55;1.83;;;12.80;99.90;;;;;;5115265;28;20102;-74
2023/09/02 03:28:06;;;;;;;6.50;1.67;;;12.80;99.90;;;;;;5115182;28;20069;-74
2023/09/02 03:30:32;;;;;;;2.88;1.60;;;12.80;99.90;;;;;;5115145;28;20499;-74
2023/09/02 03:32:58;;;;;;;3.33;1.80;;;12.80;99.90;;;;;;5115281;28;20028;-74
2023/09/02 03:35:24;;;;;;;2.90;1.50;;;12.60;99.90;;;;;;5115136;28;20024;-74
2023/09/02 03:37:51;;;;;;;2.63;1.63;;;12.60;99.90;;;;;;5115030;28;20024;-74
2023/09/02 03:40:16;;;;;;;2.35;1.45;;;12.60;99.90;;;;;;5114988;28;20023;-74
2023/09/02 03:42:42;;;;;;;1.92;1.23;;;12.60;99.90;;;;;;5114989;28;20023;-75
2023/09/02 03:45:11;;;;;;;2.85;1.50;;;12.60;99.90;;;;;;5079096;28;20035;-74
2023/09/02 03:47:37;;;;;;;2.10;1.33;;;12.60;99.90;;;;;;5114852;28;20077;-74
2023/09/02 03:50:03;;;;;;;3.97;1.67;;;12.60;99.90;;;;;;5114798;28;20027;-74
2023/09/02 03:52:29;;;;;;;6.43;3.80;;;12.60;99.90;;;;;;5114809;28;20036;-74
2023/09/02 03:54:56;;;;;;;10.95;6.00;;;12.60;99.90;;;;;;5114691;28;20036;-74
2023/09/02 03:57:22;;;;;;;11.90;6.72;;;12.50;99.90;;;;;;5114649;28;20380;-75
2023/09/02 03:59:48;;;;;;;8.88;5.20;;;12.40;99.90;;;;;;5114874;28;20027;-75
2023/09/02 04:02:16;;;;;;;6.47;3.97;;;12.40;99.90;;;;;;5096367;28;20492;-74
2023/09/02 04:04:41;;;;;;;4.57;2.92;;;12.40;99.90;;;;;;5114525;28;20034;-74
2023/09/02 04:07:07;;;;;;;5.80;2.55;;;12.40;99.90;;;;;;5114431;28;20020;-74
2023/09/02 04:09:34;;;;;;;3.92;2.30;;;12.40;99.90;;;;;;5114460;28;20019;-75
2023/09/02 04:12:00;;;;;;;3.85;1.88;;;12.40;99.90;;;;;;5114314;28;20047;-74
2023/09/02 04:14:26;;;;;;;3.03;1.83;;;12.30;99.90;;;;;;5114686;28;20472;-75
2023/09/02 04:16:53;;;;;;;4.03;1.98;;;12.40;99.90;;;;;;5114642;28;20114;-74
2023/09/02 04:19:19;;;;;;;3.83;1.83;;;12.40;99.90;;;;;;5114343;28;20027;-74
2023/09/02 04:21:46;;;;;;;2.65;1.58;;;12.30;99.90;;;;;;5114215;28;20049;-74
2023/09/02 04:24:11;;;;;;;4.05;1.80;;;12.30;99.90;;;;;;5114132;28;20384;-75
2023/09/02 04:26:37;;;;;;;3.28;1.58;;;12.30;99.90;;;;;;5113926;28;20073;-74
2023/09/02 04:29:03;;;;;;;4.55;2.22;;;12.20;99.90;;;;;;5114776;28;20043;-74
2023/09/02 04:31:29;;;;;;;3.25;1.83;;;12.20;99.90;;;;;;5115013;28;20107;-73
2023/09/02 04:33:54;;;;;;;2.90;1.98;;;12.20;99.90;;;;;;5114055;28;20121;-73
2023/09/02 04:36:20;;;;;;;3.25;1.60;;;12.20;99.90;;;;;;5095829;28;20039;-72
2023/09/02 04:38:46;;;;;;;5.82;1.88;;;12.20;99.90;;;;;;5113931;28;20476;-72
2023/09/02 04:41:11;;;;;;;3.90;2.28;;;12.10;99.90;;;;;;5113903;28;20103;-73
2023/09/02 04:43:38;;;;;;;3.28;2.33;;;12.10;99.90;;;;;;5114211;28;20465;-73
2023/09/02 04:46:04;;;;;;;4.80;2.85;;;12.10;99.90;;;;;;5114073;28;20035;-73
2023/09/02 04:48:30;;;;;;;3.92;2.58;;;12.10;99.90;;;;;;5113925;28;20020;-72
2023/09/02 04:50:56;;;;;;;4.50;2.40;;;12.10;99.90;;;;;;5095727;28;20022;-72
2023/09/02 04:53:22;;;;;;;5.25;2.33;;;12.10;99.90;;;;;;5113756;28;20038;-72
2023/09/02 04:55:49;;;;;;;3.60;1.92;;;12.10;99.90;;;;;;5114533;28;20371;-73
2023/09/02 04:58:16;;;;;;;3.55;2.00;;;12.10;99.90;;;;;;5118719;28;20030;-73
2023/09/02 05:00:42;;;;;;;4.75;1.90;;;12.10;99.90;;;;;;5099644;28;20032;-72
2023/09/02 05:03:10;;;;;;;3.00;2.03;;;12.10;99.90;;;;;;5118077;28;20028;-72
2023/09/02 05:05:36;;;;;;;3.40;1.95;;;12.10;99.90;;;;;;5099648;28;20067;-72
2023/09/02 05:08:02;;;;;;;3.53;1.75;;;12.10;99.90;;;;;;5117960;28;20522;-72
2023/09/02 05:10:28;;;;;;;4.60;1.70;;;12.10;99.90;;;;;;5117877;28;20028;-72
2023/09/02 05:12:54;;;;;;;2.63;1.75;;;12.00;99.90;;;;;;5117892;28;20028;-72
2023/09/02 05:15:19;;;;;;;2.72;1.70;;;12.00;99.90;;;;;;5117895;28;20044;-72
2023/09/02 05:17:45;;;;;;;2.67;1.60;;;12.00;99.90;;;;;;5099701;28;20028;-72
2023/09/02 05:20:11;;;;;;;3.00;1.75;;;12.00;99.90;;;;;;5117648;28;20096;-72
2023/09/02 05:22:37;;;;;;;3.00;2.22;;;12.00;99.90;;;;;;5117685;28;20047;-72
2023/09/02 05:25:03;;;;;;;2.40;1.70;;;12.10;99.90;;;;;;5117573;28;20080;-72
2023/09/02 05:27:30;;;;;;;3.00;1.90;;;12.10;99.90;;;;;;5117628;28;20433;-73
2023/09/02 05:29:56;;;;;;;3.20;1.90;;;12.10;99.90;;;;;;5099261;28;20043;-73
2023/09/02 05:32:22;;;;;;;4.57;2.17;;;12.10;99.90;;;;;;5099239;28;20104;-72
2023/09/02 05:34:48;;;;;;;4.32;2.03;;;12.10;99.90;;;;;;5117811;28;20040;-72
2023/09/02 05:37:13;;;;;;;3.88;2.40;;;12.10;99.90;;;;;;5117218;28;20123;-72
2023/09/02 05:39:39;;;;;;;3.55;2.42;;;12.20;99.90;;;;;;5117375;28;20027;-72
2023/09/02 05:42:05;;;;;;;3.75;2.40;;;12.10;99.90;;;;;;5117238;28;20020;-72
2023/09/02 05:44:34;;;;;;;3.17;1.90;;;12.20;99.90;;;;;;5117930;28;20050;-73
2023/09/02 05:47:00;;;;;;;3.03;2.10;;;12.20;99.90;;;;;;5117195;28;20020;-72
2023/09/02 05:49:26;;;;;;;3.10;1.90;;;12.20;99.90;;;;;;5117180;28;20028;-72
2023/09/02 05:51:51;;;;;;;4.35;1.92;;;12.20;99.90;;;;;;5117031;28;20028;-72
2023/09/02 05:54:17;;;;;;;4.78;1.98;;;12.30;99.90;;;;;;5116906;28;20035;-73
2023/09/02 05:56:43;;;;;;;3.92;2.22;;;12.40;99.90;;;;;;5116922;28;20028;-73
2023/09/02 05:59:08;;;;;;;4.32;2.28;;;12.40;99.90;;;;;;5117027;28;20027;-73
2023/09/02 06:01:34;;;;;;;3.53;2.40;;;12.40;99.90;;;;;;5116908;28;20140;-73
2023/09/02 06:04:00;;;;;;;3.45;1.92;;;12.50;99.90;;;;;;5098569;28;20158;-72
2023/09/02 06:06:25;;;;;;;4.68;2.80;;;12.50;99.90;;;;;;5099291;28;20506;-73
2023/09/02 06:08:53;;;;;;;4.82;2.72;;;12.50;99.90;;;;;;5116058;28;20031;-72
2023/09/02 06:11:19;;;;;;;4.80;3.10;;;12.60;99.90;;;;;;5098947;28;20395;-72
2023/09/02 06:13:45;;;;;;;5.95;3.10;;;12.70;99.90;;;;;;5117093;28;20446;-73
2023/09/02 06:16:10;;;;;;;6.20;3.40;;;12.70;99.90;;;;;;5098707;28;20028;-72
2023/09/02 06:18:36;;;;;;;7.10;3.97;;;12.80;99.90;;;;;;5116724;28;20430;-73
2023/09/02 06:21:12;;;;;;;6.63;3.90;;;12.90;99.90;;;;;;5116536;28;20034;-73
2023/09/02 06:23:43;;;;;;;4.95;3.33;;;12.90;99.90;;;;;;5116484;28;20028;-73
2023/09/02 06:26:09;;;;;;;6.78;4.05;;;13.00;99.90;;;;;;5116821;28;20030;-73
2023/09/02 06:28:35;;;;;;;5.53;3.78;;;13.00;99.90;;;;;;5098118;28;20114;-73
2023/09/02 06:31:05;;;;;;;6.05;3.38;;;13.10;99.90;;;;;;5116322;28;20522;-73
2023/09/02 06:33:31;;;;;;;5.38;3.58;;;13.20;99.90;;;;;;5116277;28;20039;-72
2023/09/02 06:35:57;;;;;;;5.65;3.03;;;13.20;99.90;;;;;;5116409;28;20035;-73
2023/09/02 06:38:23;;;;;;;5.28;3.25;;;13.30;99.90;;;;;;5106370;28;20035;-73
2023/09/02 06:40:49;;;;;;;4.88;3.35;;;13.40;99.90;;;;;;5095757;28;20099;-74
2023/09/02 06:43:14;;;;;;;6.55;4.10;;;13.50;99.90;;;;;;5099373;28;20107;-73
2023/09/02 06:45:40;;;;;;;6.13;4.20;;;13.60;99.90;;;;;;5096522;28;20015;-73
2023/09/02 06:48:06;;;;;;;7.85;4.20;;;13.60;99.90;;;;;;5092817;28;20519;-73
2023/09/02 06:50:32;;;;;;;7.32;4.65;;;13.70;99.90;;;;;;5096973;28;20605;-73
2023/09/02 06:52:57;;;;;;;8.93;4.65;;;13.80;99.90;;;;;;5114370;28;20020;-73
2023/09/02 06:55:23;;;;;;;7.68;4.70;;;13.90;99.90;;;;;;5083567;28;20036;-73
2023/09/02 06:57:49;;;;;;;6.18;3.80;;;14.00;99.90;;;;;;5114474;28;20030;-73
2023/09/02 07:00:15;;;;;;;5.18;3.50;;;14.10;99.90;;;;;;5086916;28;20500;-73
2023/09/02 07:02:42;;;;;;;7.50;3.50;;;14.20;99.90;;;;;;5097601;28;20028;-72
2023/09/02 07:05:08;;;;;;;4.80;3.30;;;14.30;99.90;;;;;;5110206;28;20468;-73
2023/09/02 07:07:36;;;;;;;5.80;3.58;;;14.30;99.90;;;;;;5096811;28;20436;-73
2023/09/02 07:10:04;;;;;;;5.45;3.85;;;14.40;99.90;;;;;;5115191;28;20456;-73
2023/09/02 07:12:29;;;;;;;5.75;4.00;;;14.50;99.90;;;;;;5099971;28;20024;-73
2023/09/02 07:14:55;;;;;;;9.23;3.75;;;14.60;99.90;;;;;;5100889;28;20030;-73
2023/09/02 07:17:21;;;;;;;7.57;4.15;;;14.70;99.90;;;;;;5113782;28;20024;-73
2023/09/02 07:19:47;;;;;;;6.10;3.90;;;14.80;99.90;;;;;;5076984;28;20036;-73
2023/09/02 07:22:12;;;;;;;7.43;4.32;;;14.90;99.90;;;;;;5096736;28;20027;-73
2023/09/02 07:24:38;;;;;;;5.88;3.50;;;15.00;99.90;;;;;;5101311;28;20042;-73
2023/09/02 07:27:04;;;;;;;5.90;3.50;;;15.10;99.90;;;;;;5090354;28;20043;-73
2023/09/02 07:29:29;;;;;;;5.95;3.92;;;15.10;99.90;;;;;;5101402;28;20028;-73
2023/09/02 07:31:58;;;;;;;6.18;3.70;;;15.20;99.90;;;;;;5096375;28;20020;-73
2023/09/02 07:34:24;;;;;;;6.95;4.15;;;15.30;99.90;;;;;;5077572;28;20115;-73
2023/09/02 07:36:50;;;;;;;6.15;3.65;;;15.40;99.90;;;;;;5076898;28;20110;-73
2023/09/02 07:39:16;;;;;;;6.15;4.10;;;15.50;99.90;;;;;;5103947;28;20028;-73
2023/09/02 07:41:42;;;;;;;4.75;3.80;;;15.60;99.90;;;;;;5083265;28;20082;-73
2023/09/02 07:44:09;;;;;;;4.85;3.45;;;15.70;99.90;;;;;;5101348;28;20026;-73
2023/09/02 07:46:35;;;;;;;6.63;4.03;;;15.80;99.90;;;;;;5080867;28;20032;-73
2023/09/02 07:49:00;;;;;;;7.72;3.50;;;15.90;99.90;;;;;;5102430;28;20020;-73
2023/09/02 07:51:26;;;;;;;5.80;3.45;;;16.00;99.90;;;;;;5106062;28;20384;-73
2023/09/02 07:53:52;;;;;;;6.75;3.47;;;16.10;99.90;;;;;;5099022;28;20071;-73
2023/09/02 07:56:17;;;;;;;5.43;3.90;;;16.20;99.90;;;;;;5094459;28;20149;-73
2023/09/02 07:58:46;;;;;;;5.88;3.80;;;16.30;99.90;;;;;;5086765;28;20031;-72
2023/09/02 08:01:12;;;;;;;7.68;4.70;;;16.40;99.90;;;;;;5109125;28;20031;-73
2023/09/02 08:03:38;;;;;;;6.10;4.43;;;16.60;99.90;;;;;;5098168;28;20028;-73
2023/09/02 08:06:08;;;;;;;6.07;4.53;;;16.70;99.90;;;;;;5073919;28;20066;-73
2023/09/02 08:08:37;;;;;;;6.10;4.15;;;16.90;99.90;;;;;;5081014;28;20096;-73
2023/09/02 08:11:04;;;;;;;5.40;4.30;;;17.00;99.90;;;;;;5096012;28;20519;-73
2023/09/02 08:13:30;;;;;;;5.28;4.22;;;17.20;99.90;;;;;;5113856;28;20023;-73
2023/09/02 08:15:56;;;;;;;5.72;3.72;;;17.30;99.90;;;;;;5112535;28;20026;-73
2023/09/02 08:18:22;;;;;;;8.18;4.00;;;17.40;99.90;;;;;;5114325;28;20111;-73
2023/09/02 08:20:48;;;;;;;5.57;3.85;;;17.60;99.90;;;;;;5114454;28;20100;-73
2023/09/02 08:23:14;;;;;;;5.50;3.88;;;17.70;99.90;;;;;;5095825;28;20066;-73
2023/09/02 08:25:39;;;;;;;17.02;5.88;;;17.80;99.90;;;;;;5114416;28;20039;-73
2023/09/02 08:28:05;;;;;;;12.40;5.00;;;17.90;99.90;;;;;;5096031;28;20024;-73
2023/09/02 08:30:31;;;;;;;9.38;4.72;;;18.10;99.90;;;;;;5096019;28;20501;-73
2023/09/02 08:32:57;;;;;;;6.95;5.30;;;18.20;99.90;;;;;;5114664;28;20022;-73
2023/09/02 08:35:23;;;;;;;7.35;4.82;;;18.40;99.90;;;;;;5114162;28;20381;-73
2023/09/02 08:37:51;;;;;;;6.07;3.88;;;18.50;99.90;;;;;;5114847;28;20023;-73
2023/09/02 08:40:17;;;;;;;6.38;4.28;;;18.60;99.90;;;;;;5114740;28;20051;-73
2023/09/02 08:42:43;;;;;;;9.32;5.05;;;18.70;99.90;;;;;;5113711;28;20376;-74
2023/09/02 08:45:11;;;;;;;5.47;4.30;;;18.80;99.90;;;;;;5113908;28;20103;-73
2023/09/02 08:47:39;;;;;;;6.03;4.50;;;18.90;99.90;;;;;;5114052;28;20072;-73
2023/09/02 08:50:08;;;;;;;5.18;4.32;;;19.10;99.90;;;;;;5114014;28;20058;-74
2023/09/02 08:52:35;;;;;;;4.43;3.10;;;19.20;99.90;;;;;;5114029;28;20048;-73
2023/09/02 08:55:02;;;;;;;4.78;3.55;;;19.30;99.90;;;;;;5095851;28;20495;-73
2023/09/02 08:57:28;;;;;;;4.95;3.30;;;19.40;99.90;;;;;;5113979;28;20023;-73
2023/09/02 08:59:53;;;;;;;4.63;3.25;;;19.60;99.90;;;;;;5095831;28;20034;-73
2023/09/02 09:02:20;;;;;;;5.45;3.90;;;19.70;99.90;;;;;;5113939;28;20028;-73
2023/09/02 09:04:48;;;;;;;5.32;3.80;;;19.90;99.90;;;;;;5113865;28;20028;-73
2023/09/02 09:07:16;;;;;;;5.20;3.90;;;20.00;99.90;;;;;;5113910;28;20365;-73
2023/09/02 09:09:43;;;;;;;4.82;3.40;;;20.10;99.90;;;;;;5114098;28;20024;-73
2023/09/02 09:12:11;;;;;;;4.63;3.15;;;20.20;99.90;;;;;;5113811;28;20028;-73
2023/09/02 09:14:40;;;;;;;5.45;3.90;;;20.40;99.90;;;;;;5114164;28;20413;-73
2023/09/02 09:17:07;;;;;;;6.78;3.55;;;20.50;99.90;;;;;;5113905;28;20476;-73
2023/09/02 09:19:33;;;;;;;6.55;4.22;;;20.60;99.90;;;;;;5113503;28;20072;-73
2023/09/02 09:22:02;;;;;;;4.75;3.90;;;20.60;99.90;;;;;;5113244;28;20131;-73
2023/09/02 09:24:28;;;;;;;4.60;3.50;;;20.70;99.90;;;;;;5095226;28;20036;-75
2023/09/02 09:26:57;;;;;;;4.18;3.17;;;20.80;99.90;;;;;;5114241;28;20044;-73
2023/09/02 09:29:23;;;;;;;4.75;3.53;;;21.00;99.90;;;;;;5112227;28;20012;-74
2023/09/02 09:32:06;;;;;;;8.30;4.40;;;21.10;99.90;;;;;;5112607;28;20023;-73
2023/09/02 09:34:43;;;;;;;6.70;5.55;;;21.20;99.90;;;;;;5113822;28;20024;-73
2023/09/02 09:37:09;;;;;;;6.72;5.78;;;21.30;99.90;;;;;;5113672;28;20115;-74
2023/09/02 09:39:53;;;;;;;5.43;3.72;;;21.40;99.90;;;;;;5094356;28;20032;-73
2023/09/02 09:42:35;;;;;;;6.47;4.00;;;21.50;99.90;;;;;;5113746;28;20027;-73
2023/09/02 09:45:03;;;;;;;4.55;3.17;;;21.60;99.90;;;;;;5099121;28;20080;-73
2023/09/02 09:47:29;;;;;;;4.03;3.08;;;21.70;99.90;;;;;;5117588;28;20024;-73
2023/09/02 09:50:14;;;;;;;4.20;2.90;;;21.80;99.90;;;;;;5117515;28;20379;-73
2023/09/02 09:52:40;;;;;;;5.97;3.60;;;22.00;99.90;;;;;;5117507;28;20024;-73
2023/09/02 09:55:06;;;;;;;4.88;3.33;;;22.10;99.90;;;;;;5117089;28;20039;-73
2023/09/02 09:57:38;;;;;;;6.53;3.40;;;22.10;99.90;;;;;;5099179;28;20050;-73
2023/09/02 10:00:06;;;;;;;3.58;2.92;;;22.20;99.90;;;;;;5117298;28;20035;-73
2023/09/02 10:02:32;;;;;;;3.55;2.53;;;22.30;99.90;;;;;;5116985;28;20084;-74
2023/09/02 10:05:02;;;;;;;4.53;2.88;;;22.50;99.90;;;;;;5098534;28;20072;-74
2023/09/02 10:07:33;;;;;;;4.18;3.28;;;22.50;99.90;;;;;;5116949;28;20031;-74
2023/09/02 10:10:01;;;;;;;4.03;2.88;;;22.70;99.90;;;;;;5098868;28;20420;-73
2023/09/02 10:12:33;;;;;;;3.88;3.00;;;22.90;99.90;;;;;;5117300;28;20023;-73
2023/09/02 10:14:59;;;;;;;4.20;2.80;;;23.00;99.90;;;;;;5116912;28;20031;-73
2023/09/02 10:17:26;;;;;;;5.90;3.03;;;23.00;99.90;;;;;;5116686;28;20036;-73
2023/09/02 10:19:52;;;;;;;3.67;2.30;;;23.10;99.90;;;;;;5116539;28;20480;-73
2023/09/02 10:22:21;;;;;;;4.32;2.55;;;23.20;99.90;;;;;;5098330;28;20033;-73
2023/09/02 10:25:06;;;;;;;3.85;2.28;;;23.30;99.90;;;;;;5116474;28;20034;-72
2023/09/02 10:27:37;;;;;;;4.60;2.60;;;23.40;99.90;;;;;;5099347;28;20413;-72
2023/09/02 10:30:30;;;;;;;3.00;2.08;;;23.50;99.90;;;;;;5098091;28;20028;-73
2023/09/02 10:33:06;;;;;;;4.03;2.28;;;23.60;99.90;;;;;;5098574;28;20076;-73
2023/09/02 10:35:37;;;;;;;3.78;2.30;;;23.70;99.90;;;;;;5116677;28;20106;-72
2023/09/02 10:38:05;;;;;;;3.15;1.80;;;23.80;99.90;;;;;;5116409;28;20019;-73
2023/09/02 10:40:39;;;;;;;7.68;3.03;;;23.90;99.90;;;;;;5116381;28;20043;-74
2023/09/02 10:43:06;;;;;;;5.57;3.22;;;24.00;99.90;;;;;;5116273;28;20030;-75
2023/09/02 10:45:32;;;;;;;4.38;2.40;;;24.10;99.90;;;;;;5100223;28;20067;-74
2023/09/02 10:47:59;;;;;;;3.67;2.60;;;24.20;99.90;;;;;;5096166;28;20020;-74
2023/09/02 10:50:25;;;;;;;3.00;2.28;;;24.40;99.90;;;;;;5098521;28;20023;-74
2023/09/02 10:52:52;;;;;;;5.82;2.50;;;24.50;99.90;;;;;;5115554;28;20083;-74
2023/09/02 10:55:20;;;;;;;3.53;2.22;;;24.50;99.90;;;;;;5111876;28;20023;-74
2023/09/02 10:57:55;;;;;;;4.78;2.80;;;24.60;99.90;;;;;;5112114;28;20059;-75
2023/09/02 11:00:23;;;;;;;4.57;2.75;;;24.70;99.90;;;;;;5112443;28;20031;-74
2023/09/02 11:02:54;;;;;;;3.38;1.98;;;24.80;99.90;;;;;;5108925;28;20192;-74
2023/09/02 11:05:24;;;;;;;;;;;24.80;99.90;;;;;;5077875;28;20436;-74
2023/09/02 11:07:50;;;;;;;3.70;2.28;;;24.90;99.90;;;;;;5106578;28;19908;-74
2023/09/02 11:10:17;;;;;;;3.00;2.05;;;25.10;99.90;;;;;;5114852;28;20053;-74
2023/09/02 11:13:01;;;;;;;4.40;2.70;;;25.20;99.90;;;;;;5115077;28;20020;-74
2023/09/02 11:15:31;;;;;;;4.90;2.38;;;25.30;99.90;;;;;;5115011;28;20051;-74
2023/09/02 11:17:57;;;;;;;3.13;2.03;;;25.30;99.50;;;;;;5114949;28;20391;-74
2023/09/02 11:20:25;;;;;;;3.63;2.35;;;25.30;98.70;;;;;;5096711;28;20036;-74
2023/09/02 11:22:53;;;;;;;2.83;1.77;;;25.30;99.80;;;;;;5114751;28;20046;-74
2023/09/02 11:25:31;;;;;;;7.20;2.53;;;25.40;99.40;;;;;;5114487;28;20015;-74
2023/09/02 11:27:59;;;;;;;3.45;2.13;;;25.50;99.90;;;;;;5114785;28;20537;-74
2023/09/02 11:30:26;;;;;;;3.40;2.10;;;25.70;99.90;;;;;;5114681;28;20024;-74
2023/09/02 11:32:52;;;;;;;5.22;2.20;;;25.80;99.90;;;;;;5114662;28;20102;-74
2023/09/02 11:35:44;;;;;;;2.95;1.98;;;25.90;98.40;;;;;;5114630;28;20030;-74
2023/09/02 11:38:19;;;;;;;3.00;1.98;;;25.90;97.80;;;;;;5109923;28;20116;-74
2023/09/02 11:40:46;;;;;;;3.08;1.65;;;26.00;97.20;;;;;;5114476;28;20034;-74
2023/09/02 11:43:17;;;;;;;2.50;1.45;;;26.10;95.50;;;;;;5114422;28;20031;-74
2023/09/02 11:45:44;;;;;;;3.35;1.60;;;26.20;95.60;;;;;;5114382;28;20032;-74
2023/09/02 11:48:10;;;;;;;3.20;1.90;;;26.20;95.50;;;;;;5114279;28;20108;-74
2023/09/02 11:50:38;;;;;;;3.95;1.67;;;26.30;95.60;;;;;;5115037;28;20453;-74
2023/09/02 11:53:05;;;;;;;2.72;1.60;;;26.30;94.30;;;;;;5114638;28;20039;-75
2023/09/02 11:55:30;;;;;;;2.75;1.80;;;26.40;94.10;;;;;;5115195;28;20118;-75
2023/09/02 11:57:56;;;;;;;4.53;1.52;;;26.50;93.40;;;;;;5114815;28;20102;-75
2023/09/02 12:00:24;;;;;;;2.65;1.60;;;26.50;93.80;;;;;;5114562;28;20031;-74
2023/09/02 12:02:54;;;;;;;3.03;1.50;;;26.50;93.30;;;;;;5114920;28;20384;-75
2023/09/02 12:05:19;;;;;;;2.85;1.60;;;26.50;91.90;;;;;;5114390;28;20028;-74
2023/09/02 12:07:46;;;;;;;3.78;1.45;;;26.60;92.00;;;;;;5114518;28;20031;-75
2023/09/02 12:10:16;;;;;;;3.03;1.70;;;26.60;91.50;;;;;;5097061;28;20035;-75
2023/09/02 12:12:47;;;;;;;3.22;1.40;;;26.50;92.30;;;;;;5115238;28;20099;-74
2023/09/02 12:15:15;;;;;;;3.75;1.92;;;26.60;91.80;;;;;;5114560;28;20032;-75
2023/09/02 12:17:41;;;;;;;3.58;1.80;;;26.70;92.20;;;;;;5114546;28;20484;-75
2023/09/02 12:20:11;;;;;;;2.88;1.50;;;26.70;91.00;;;;;;5114446;28;20027;-75
2023/09/02 12:22:38;;;;;;;4.70;1.65;;;26.80;91.10;;;;;;5114385;28;20478;-74
2023/09/02 12:25:19;;;;;;;5.28;1.60;;;26.90;90.20;;;;;;5114160;28;20031;-74
2023/09/02 12:27:45;;;;;;;3.13;1.60;;;27.00;90.20;;;;;;5114181;28;20443;-74
2023/09/02 12:30:12;;;;;;;4.88;1.77;;;27.00;90.40;;;;;;5114130;28;20103;-74
2023/09/02 12:32:38;;;;;;;3.63;1.75;;;26.90;89.20;;;;;;5114207;28;20073;-75
2023/09/02 12:35:08;;;;;;;6.00;1.88;;;27.00;90.70;;;;;;5114187;28;20023;-75
2023/09/02 12:37:34;;;;;;;6.28;1.45;;;26.90;90.10;;;;;;5114749;28;20387;-75
2023/09/02 12:40:12;;;;;;;4.72;1.80;;;26.90;90.10;;;;;;5095936;28;20088;-74
2023/09/02 12:42:39;;;;;;;3.55;1.65;;;26.90;90.30;;;;;;5114151;28;20027;-74
2023/09/02 12:45:07;;;;;;;3.72;1.60;;;26.90;89.70;;;;;;5113891;28;20051;-75
2023/09/02 12:47:33;;;;;;;4.15;2.00;;;26.80;90.10;;;;;;5114197;28;20383;-75
2023/09/02 12:50:03;;;;;;;2.60;1.55;;;26.80;91.00;;;;;;5114419;28;20030;-74